createdAt,value
2022-12-28T00:02:01.790Z,4.32
2022-12-28T00:04:34.187Z,4.28
2022-12-28T00:07:06.567Z,4.26
2022-12-28T00:09:39.086Z,4.24
2022-12-28T00:12:11.708Z,4.21
2022-12-28T00:14:46.098Z,4.17
2022-12-28T00:17:18.894Z,4.13
2022-12-28T00:19:51.369Z,4.11
2022-12-28T00:22:23.928Z,4.08
2022-12-28T00:24:56.320Z,4.06
2022-12-28T00:27:28.669Z,4.05
2022-12-28T00:30:01.045Z,4.05
2022-12-28T00:32:34.418Z,4.05
2022-12-28T00:35:07.907Z,4.05
2022-12-28T00:37:40.386Z,4.07
2022-12-28T00:40:18.924Z,4.07
2022-12-28T00:42:54.604Z,4.06
2022-12-28T00:45:26.999Z,4.04
2022-12-28T00:47:59.401Z,4.01
2022-12-28T00:50:31.954Z,3.98
2022-12-28T00:53:04.582Z,3.97
2022-12-28T00:55:37.528Z,3.96
2022-12-28T00:58:11.714Z,3.94
2022-12-28T01:00:44.212Z,3.90
2022-12-28T01:03:16.653Z,3.88
2022-12-28T01:05:49.238Z,3.84
2022-12-28T01:08:21.739Z,3.81
2022-12-28T01:10:54.065Z,3.79
2022-12-28T01:13:26.486Z,3.77
2022-12-28T01:15:58.857Z,3.75
2022-12-28T01:18:31.717Z,3.72
2022-12-28T01:21:11.539Z,3.69
2022-12-28T01:23:44.321Z,3.69
2022-12-28T01:26:17.264Z,3.68
2022-12-28T01:28:50.783Z,3.67
2022-12-28T01:31:23.868Z,3.65
2022-12-28T01:33:56.561Z,3.63
2022-12-28T01:36:35.043Z,3.61
2022-12-28T01:39:08.222Z,3.61
2022-12-28T01:41:42.865Z,3.63
2022-12-28T01:44:51.342Z,3.65
2022-12-28T01:47:28.263Z,3.68
2022-12-28T01:50:08.904Z,3.72
2022-12-28T01:52:44.769Z,3.75
2022-12-28T01:55:20.079Z,3.74
2022-12-28T01:57:57.084Z,3.72
2022-12-28T02:00:30.354Z,3.67
2022-12-28T02:03:07.278Z,3.62
2022-12-28T02:05:42.793Z,3.57
2022-12-28T02:08:23.474Z,3.50
2022-12-28T02:10:57.314Z,3.48
2022-12-28T02:13:30.061Z,3.44
2022-12-28T02:16:02.958Z,3.40
2022-12-28T02:18:35.565Z,3.39
2022-12-28T02:21:25.131Z,3.39
2022-12-28T02:24:17.757Z,3.36
2022-12-28T02:27:01.988Z,3.29
2022-12-28T02:29:55.328Z,3.26
2022-12-28T02:32:41.695Z,3.25
2022-12-28T02:35:18.777Z,3.25
2022-12-28T02:37:54.923Z,3.25
2022-12-28T02:40:34.121Z,3.28
2022-12-28T02:43:07.011Z,3.31
2022-12-28T02:45:59.467Z,3.32
2022-12-28T02:48:59.756Z,3.31
2022-12-28T02:51:49.045Z,3.29
2022-12-28T02:55:18.867Z,3.27
2022-12-28T02:58:16.045Z,3.22
2022-12-28T03:01:01.376Z,3.20
2022-12-28T03:03:40.839Z,3.18
2022-12-28T03:06:39.602Z,3.15
2022-12-28T03:09:18.915Z,3.16
2022-12-28T03:12:01.987Z,3.18
2022-12-28T03:14:42.193Z,3.21
2022-12-28T03:17:33.212Z,3.22
2022-12-28T03:20:27.617Z,3.23
2022-12-28T03:23:23.263Z,3.25
2022-12-28T03:26:16.154Z,3.27
2022-12-28T03:29:09.255Z,3.30
2022-12-28T03:31:44.771Z,3.29
2022-12-28T03:34:18.836Z,3.28
2022-12-28T03:37:00.581Z,3.27
2022-12-28T03:39:46.416Z,3.26
2022-12-28T03:42:44.652Z,3.28
2022-12-28T03:45:45.384Z,3.28
2022-12-28T03:48:16.532Z,3.29
2022-12-28T03:50:51.667Z,3.34
2022-12-28T03:53:25.627Z,3.34
2022-12-28T03:56:11.041Z,3.33
2022-12-28T03:58:43.917Z,3.36
2022-12-28T04:01:16.902Z,3.36
2022-12-28T04:03:49.789Z,3.36
2022-12-28T04:06:22.908Z,3.39
2022-12-28T04:08:55.277Z,3.39
2022-12-28T04:11:33.463Z,3.37
2022-12-28T04:14:10.896Z,3.36
2022-12-28T04:16:45.478Z,3.36
2022-12-28T04:19:20.589Z,3.34
2022-12-28T04:21:53.331Z,3.30
2022-12-28T04:24:25.950Z,3.28
2022-12-28T04:26:59.244Z,3.27
2022-12-28T04:29:31.646Z,3.26
2022-12-28T04:32:13.027Z,3.28
2022-12-28T04:34:48.741Z,3.26
2022-12-28T04:37:22.740Z,3.29
2022-12-28T04:39:57.296Z,3.32
2022-12-28T04:42:29.978Z,3.37
2022-12-28T04:45:02.319Z,3.42
2022-12-28T04:47:34.644Z,3.46
2022-12-28T04:50:07.728Z,3.44
2022-12-28T04:52:40.036Z,3.45
2022-12-28T04:55:32.903Z,3.39
2022-12-28T04:58:07.017Z,3.35
2022-12-28T05:00:39.506Z,3.31
2022-12-28T05:03:11.890Z,3.31
2022-12-28T05:05:45.249Z,3.33
2022-12-28T05:08:17.635Z,3.32
2022-12-28T05:10:49.960Z,3.33
2022-12-28T05:13:22.310Z,3.34
2022-12-28T05:15:54.836Z,3.30
2022-12-28T05:18:27.284Z,3.31
2022-12-28T05:21:04.033Z,3.30
2022-12-28T05:23:38.468Z,3.29
2022-12-28T05:26:14.807Z,3.33
2022-12-28T05:28:47.328Z,3.33
2022-12-28T05:31:23.422Z,3.31
2022-12-28T05:33:56.393Z,3.31
2022-12-28T05:36:30.099Z,3.27
2022-12-28T05:39:02.598Z,3.25
2022-12-28T05:41:35.012Z,3.25
2022-12-28T05:44:07.891Z,3.22
2022-12-28T05:46:40.307Z,3.21
2022-12-28T05:49:12.661Z,3.21
2022-12-28T05:51:45.027Z,3.20
2022-12-28T05:54:17.401Z,3.23
2022-12-28T05:56:53.183Z,3.28
2022-12-28T05:59:25.499Z,3.28
2022-12-28T06:01:58.026Z,3.29
2022-12-28T06:04:30.533Z,3.29
2022-12-28T06:07:03.038Z,3.25
2022-12-28T06:09:35.686Z,3.25
2022-12-28T06:12:10.134Z,3.20
2022-12-28T06:14:42.555Z,3.15
2022-12-28T06:17:14.884Z,3.16
2022-12-28T06:19:47.303Z,3.20
2022-12-28T06:22:19.649Z,3.18
2022-12-28T06:24:52.053Z,3.18
2022-12-28T06:27:24.420Z,3.21
2022-12-28T06:29:56.765Z,3.24
2022-12-28T06:32:29.152Z,3.23
2022-12-28T06:35:02.717Z,3.19
2022-12-28T06:37:35.090Z,3.15
2022-12-28T06:40:08.796Z,3.12
2022-12-28T06:42:41.140Z,3.08
2022-12-28T06:45:13.943Z,3.04
2022-12-28T06:47:46.279Z,3.00
2022-12-28T06:50:18.746Z,3.00
2022-12-28T06:52:51.119Z,2.99
2022-12-28T06:55:23.493Z,2.99
2022-12-28T06:57:56.455Z,2.99
2022-12-28T07:00:28.904Z,2.99
2022-12-28T07:03:01.569Z,3.03
2022-12-28T07:05:35.867Z,3.06
2022-12-28T07:08:12.485Z,3.07
2022-12-28T07:10:45.442Z,3.09
2022-12-28T07:13:18.559Z,3.09
2022-12-28T07:15:53.176Z,3.11
2022-12-28T07:18:25.561Z,3.11
2022-12-28T07:21:03.610Z,3.11
2022-12-28T07:23:36.057Z,3.10
2022-12-28T07:26:11.142Z,3.12
2022-12-28T07:28:45.637Z,3.13
2022-12-28T07:31:20.301Z,3.14
2022-12-28T07:33:55.673Z,3.15
2022-12-28T07:36:30.238Z,3.14
2022-12-28T07:39:03.247Z,3.11
2022-12-28T07:41:37.286Z,3.11
2022-12-28T07:44:11.079Z,3.10
2022-12-28T07:46:43.438Z,3.08
2022-12-28T07:49:15.790Z,3.07
2022-12-28T07:51:49.161Z,3.09
2022-12-28T07:54:21.606Z,3.10
2022-12-28T07:56:54.084Z,3.12
2022-12-28T07:59:30.939Z,3.14
2022-12-28T08:02:03.832Z,3.17
2022-12-28T08:04:36.258Z,3.23
2022-12-28T08:07:08.619Z,3.25
2022-12-28T08:09:40.914Z,3.28
2022-12-28T08:12:13.235Z,3.28
2022-12-28T08:14:45.629Z,3.27
2022-12-28T08:17:21.245Z,3.26
2022-12-28T08:19:55.597Z,3.27
2022-12-28T08:22:28.205Z,3.29
2022-12-28T08:25:00.555Z,3.29
2022-12-28T08:27:38.326Z,3.28
2022-12-28T08:30:14.937Z,3.29
2022-12-28T08:32:47.289Z,3.29
2022-12-28T08:35:19.774Z,3.29
2022-12-28T08:37:52.172Z,3.29
2022-12-28T08:40:29.933Z,3.32
2022-12-28T08:43:02.775Z,3.33
2022-12-28T08:45:35.128Z,3.36
2022-12-28T08:48:08.320Z,3.40
2022-12-28T08:50:40.645Z,3.43
2022-12-28T08:53:13.248Z,3.45
2022-12-28T08:55:45.670Z,3.48
2022-12-28T08:58:18.017Z,3.47
2022-12-28T09:00:50.336Z,3.47
2022-12-28T09:03:22.746Z,3.49
2022-12-28T09:05:55.162Z,3.50
2022-12-28T09:08:27.561Z,3.52
2022-12-28T09:11:03.900Z,3.53
2022-12-28T09:13:37.250Z,3.56
2022-12-28T09:16:12.078Z,3.58
2022-12-28T09:18:45.983Z,3.61
2022-12-28T09:21:21.099Z,3.64
2022-12-28T09:23:53.549Z,3.68
2022-12-28T09:26:28.283Z,3.71
2022-12-28T09:29:02.443Z,3.73
2022-12-28T09:31:37.416Z,3.74
2022-12-28T09:37:02.011Z,3.71
2022-12-28T09:39:34.458Z,3.72
2022-12-28T09:42:13.160Z,3.72
2022-12-28T09:44:56.106Z,3.73
2022-12-28T09:47:34.986Z,3.75
2022-12-28T09:50:30.381Z,3.79
2022-12-28T09:53:36.587Z,3.82
2022-12-28T09:56:24.371Z,3.86
2022-12-28T09:58:58.175Z,3.86
2022-12-28T10:01:30.790Z,3.88
2022-12-28T10:04:04.228Z,3.89
2022-12-28T10:06:38.248Z,3.90
2022-12-28T10:09:23.518Z,3.89
2022-12-28T10:11:56.579Z,3.87
2022-12-28T10:14:33.534Z,3.83
2022-12-28T10:17:07.839Z,3.84
2022-12-28T10:19:40.394Z,3.85
2022-12-28T10:22:17.311Z,3.86
2022-12-28T10:24:50.094Z,3.87
2022-12-28T10:27:25.027Z,3.86
2022-12-28T10:30:00.497Z,3.85
2022-12-28T10:32:51.841Z,3.85
2022-12-28T10:35:29.869Z,3.86
2022-12-28T10:38:07.613Z,3.88
2022-12-28T10:40:41.209Z,3.89
2022-12-28T10:43:21.300Z,3.89
2022-12-28T10:45:54.240Z,3.88
2022-12-28T10:48:30.583Z,3.90
2022-12-28T10:51:12.935Z,3.93
2022-12-28T10:53:48.249Z,3.95
2022-12-28T10:56:28.602Z,3.96
2022-12-28T10:59:24.565Z,3.99
2022-12-28T11:02:14.911Z,4.02
2022-12-28T11:05:00.669Z,4.05
2022-12-28T11:07:36.369Z,4.05
2022-12-28T11:10:28.994Z,4.05
2022-12-28T11:13:02.748Z,4.06
2022-12-28T11:15:35.994Z,4.07
2022-12-28T11:18:17.769Z,4.07
2022-12-28T11:20:52.564Z,4.06
2022-12-28T11:23:31.610Z,4.10
2022-12-28T11:26:04.380Z,4.12
2022-12-28T11:28:36.724Z,4.14
2022-12-28T11:31:15.738Z,4.15
2022-12-28T11:33:50.023Z,4.17
2022-12-28T11:36:25.336Z,4.16
2022-12-28T11:38:58.733Z,4.17
2022-12-28T11:42:19.383Z,4.17
2022-12-28T11:44:56.931Z,4.18
2022-12-28T11:47:34.244Z,4.17
2022-12-28T11:50:50.887Z,4.14
2022-12-28T11:53:45.527Z,4.13
2022-12-28T11:56:19.437Z,4.15
2022-12-28T11:59:05.085Z,4.16
2022-12-28T12:01:52.291Z,4.16
2022-12-28T12:04:33.356Z,4.15
2022-12-28T12:07:45.896Z,4.18
2022-12-28T12:10:30.941Z,4.20
2022-12-28T12:13:20.538Z,4.22
2022-12-28T12:15:56.185Z,4.24
2022-12-28T12:18:31.198Z,4.25
2022-12-28T12:21:13.292Z,4.28
2022-12-28T12:23:53.193Z,4.30
2022-12-28T12:26:34.831Z,4.36
2022-12-28T12:29:16.213Z,4.43
2022-12-28T12:31:52.507Z,4.45
2022-12-28T12:34:29.750Z,4.48
2022-12-28T12:37:29.045Z,4.50
2022-12-28T12:40:25.614Z,4.52
2022-12-28T12:43:15.573Z,4.52
2022-12-28T12:45:57.454Z,4.51
2022-12-28T12:48:55.647Z,4.55
2022-12-28T12:51:33.529Z,4.59
2022-12-28T12:54:23.337Z,4.62
2022-12-28T12:56:59.801Z,4.65
2022-12-28T12:59:50.459Z,4.67
2022-12-28T13:02:58.280Z,4.68
2022-12-28T13:05:32.918Z,4.68
2022-12-28T13:08:06.743Z,4.69
2022-12-28T13:10:44.696Z,4.69
2022-12-28T13:13:25.592Z,4.68
2022-12-28T13:16:03.456Z,4.71
2022-12-28T13:18:45.019Z,4.71
2022-12-28T13:21:22.346Z,4.71
2022-12-28T13:23:55.496Z,4.73
2022-12-28T13:26:30.536Z,4.74
2022-12-28T13:29:04.847Z,4.74
2022-12-28T13:31:39.877Z,4.75
2022-12-28T13:34:20.776Z,4.77
2022-12-28T13:36:56.717Z,4.75
2022-12-28T13:39:33.053Z,4.74
2022-12-28T13:42:15.363Z,4.71
2022-12-28T13:44:50.981Z,4.70
2022-12-28T13:47:27.640Z,4.67
2022-12-28T13:50:04.711Z,4.65
2022-12-28T13:52:42.946Z,4.64
2022-12-28T13:55:18.752Z,4.65
2022-12-28T13:57:59.724Z,4.65
2022-12-28T14:00:35.223Z,4.64
2022-12-28T14:03:07.726Z,4.63
2022-12-28T14:05:43.543Z,4.60
2022-12-28T14:08:17.025Z,4.58
2022-12-28T14:10:51.537Z,4.57
2022-12-28T14:13:25.190Z,4.56
2022-12-28T14:15:57.798Z,4.56
2022-12-28T14:18:31.563Z,4.56
2022-12-28T14:21:06.407Z,4.56
2022-12-28T14:23:40.560Z,4.58
2022-12-28T14:26:22.337Z,4.58
2022-12-28T14:28:56.361Z,4.57
2022-12-28T14:31:30.942Z,4.58
2022-12-28T14:34:05.895Z,4.59
2022-12-28T14:36:43.414Z,4.59
2022-12-28T14:39:27.621Z,4.58
2022-12-28T14:42:00.729Z,4.60
2022-12-28T14:44:34.766Z,4.62
2022-12-28T14:47:37.066Z,4.62
2022-12-28T14:50:22.418Z,4.62
2022-12-28T14:53:08.835Z,4.62
2022-12-28T14:55:55.196Z,4.63
2022-12-28T14:58:31.654Z,4.64
2022-12-28T15:01:07.329Z,4.63
2022-12-28T15:03:54.179Z,4.65
2022-12-28T15:06:30.498Z,4.66
2022-12-28T15:09:06.519Z,4.65
2022-12-28T15:11:39.062Z,4.64
2022-12-28T15:14:11.509Z,4.65
2022-12-28T15:16:43.963Z,4.66
2022-12-28T15:19:16.402Z,4.66
2022-12-28T15:21:48.982Z,4.66
2022-12-28T15:24:23.703Z,4.66
2022-12-28T15:26:57.596Z,4.66
2022-12-28T15:32:22.485Z,4.65
2022-12-28T15:34:54.867Z,4.67
2022-12-28T15:37:27.203Z,4.66
2022-12-28T15:39:59.707Z,4.67
2022-12-28T15:42:38.134Z,4.67
2022-12-28T15:45:13.478Z,4.66
2022-12-28T15:47:45.890Z,4.65
2022-12-28T15:50:18.561Z,4.67
2022-12-28T15:52:50.993Z,4.70
2022-12-28T15:55:23.343Z,4.68
2022-12-28T15:57:55.698Z,4.69
2022-12-28T16:00:28.087Z,4.69
2022-12-28T16:03:00.541Z,4.69
2022-12-28T16:05:33.684Z,4.70
2022-12-28T16:08:06.360Z,4.71
2022-12-28T16:10:38.681Z,4.71
2022-12-28T16:13:11.091Z,4.73
2022-12-28T16:15:43.457Z,4.76
2022-12-28T16:18:15.851Z,4.77
2022-12-28T16:20:49.068Z,4.79
2022-12-28T16:23:21.442Z,4.81
2022-12-28T16:25:54.044Z,4.83
2022-12-28T16:28:26.449Z,4.86
2022-12-28T16:30:59.639Z,4.89
2022-12-28T16:33:32.318Z,4.90
2022-12-28T16:36:12.047Z,4.90
2022-12-28T16:38:44.487Z,4.92
2022-12-28T16:41:18.146Z,4.93
2022-12-28T16:43:51.428Z,4.95
2022-12-28T16:46:23.867Z,4.96
2022-12-28T16:48:56.323Z,4.98
2022-12-28T16:51:28.841Z,4.99
2022-12-28T16:54:01.232Z,5.00
2022-12-28T16:56:33.633Z,5.01
2022-12-28T16:59:05.952Z,5.01
2022-12-28T17:01:38.551Z,5.00
2022-12-28T17:04:11.265Z,5.00
2022-12-28T17:06:46.591Z,5.00
2022-12-28T17:09:19.712Z,5.00
2022-12-28T17:11:52.705Z,5.00
2022-12-28T17:14:37.077Z,5.00
2022-12-28T17:17:10.242Z,4.99
2022-12-28T17:19:42.494Z,4.99
2022-12-28T17:22:14.976Z,4.99
2022-12-28T17:24:47.378Z,4.99
2022-12-28T17:27:20.051Z,4.99
2022-12-28T17:29:52.459Z,5.00
2022-12-28T17:32:24.856Z,5.01
2022-12-28T17:34:57.327Z,5.03
2022-12-28T17:37:29.821Z,5.04
2022-12-28T17:40:02.206Z,5.06
2022-12-28T17:42:34.573Z,5.07
2022-12-28T17:45:11.743Z,5.09
2022-12-28T17:47:44.617Z,5.10
2022-12-28T17:50:18.234Z,5.13
2022-12-28T17:52:50.525Z,5.15
2022-12-28T17:55:22.843Z,5.18
2022-12-28T17:57:55.469Z,5.19
2022-12-28T18:00:27.863Z,5.19
2022-12-28T18:03:00.790Z,5.19
2022-12-28T18:05:35.300Z,5.20
2022-12-28T18:08:08.057Z,5.21
2022-12-28T18:10:40.509Z,5.23
2022-12-28T18:13:13.371Z,5.25
2022-12-28T18:15:47.177Z,5.27
2022-12-28T18:18:20.419Z,5.29
2022-12-28T18:21:00.786Z,5.30
2022-12-28T18:23:34.431Z,5.32
2022-12-28T18:26:08.800Z,5.34
2022-12-28T18:28:41.311Z,5.36
2022-12-28T18:31:13.947Z,5.37
2022-12-28T18:54:30.938Z,5.43
2022-12-28T18:57:03.310Z,5.44
2022-12-28T18:59:35.767Z,5.45
2022-12-28T19:02:15.938Z,5.47
2022-12-28T19:04:52.990Z,5.47
2022-12-28T19:07:25.683Z,5.46
2022-12-28T19:10:14.061Z,5.47
2022-12-28T19:12:47.041Z,5.46
2022-12-28T19:15:19.826Z,5.48
2022-12-28T19:17:52.198Z,5.49
2022-12-28T19:20:24.828Z,5.51
2022-12-28T19:22:57.225Z,5.52
2022-12-28T19:25:29.625Z,5.54
2022-12-28T19:28:02.051Z,5.54
2022-12-28T19:30:34.446Z,5.55
2022-12-28T19:33:06.952Z,5.55
2022-12-28T19:35:39.320Z,5.55
2022-12-28T19:38:11.618Z,5.55
2022-12-28T19:40:43.941Z,5.56
2022-12-28T19:43:16.212Z,5.60
2022-12-28T19:45:48.671Z,5.68
2022-12-28T19:48:21.034Z,5.70
2022-12-28T19:50:53.332Z,5.69
2022-12-28T19:53:25.681Z,5.71
2022-12-28T19:56:04.612Z,5.72
2022-12-28T19:58:39.183Z,5.73
2022-12-28T20:01:13.502Z,5.73
2022-12-28T20:03:46.858Z,5.74
2022-12-28T20:06:22.346Z,5.74
2022-12-28T20:08:56.529Z,5.74
2022-12-28T20:11:29.706Z,5.74
2022-12-28T20:14:03.660Z,5.72
2022-12-28T20:16:37.414Z,5.69
2022-12-28T20:19:11.043Z,5.67
2022-12-28T20:21:43.565Z,5.65
2022-12-28T20:24:17.586Z,5.62
2022-12-28T20:26:50.096Z,5.61
2022-12-28T20:29:22.372Z,5.60
2022-12-28T20:31:55.166Z,5.60
2022-12-28T20:34:27.702Z,5.60
2022-12-28T20:37:00.186Z,5.60
2022-12-28T20:39:32.583Z,5.60
2022-12-28T20:42:22.881Z,5.61
2022-12-28T20:44:57.658Z,5.62
2022-12-28T20:47:30.079Z,5.63
2022-12-28T20:50:04.045Z,5.66
2022-12-28T20:52:36.362Z,5.66
2022-12-28T20:55:09.651Z,5.68
2022-12-28T20:57:41.981Z,5.67
2022-12-28T21:00:16.343Z,5.66
2022-12-28T21:02:49.309Z,5.67
2022-12-28T21:05:21.757Z,5.69
2022-12-28T21:07:54.229Z,5.71
2022-12-28T21:10:26.770Z,5.73
2022-12-28T21:12:59.425Z,5.73
2022-12-28T21:15:31.876Z,5.74
2022-12-28T21:18:04.535Z,5.74
2022-12-28T21:20:39.192Z,5.74
2022-12-28T21:23:11.855Z,5.75
2022-12-28T21:25:44.248Z,5.75
2022-12-28T21:28:16.763Z,5.75
2022-12-28T21:30:55.938Z,5.76
2022-12-28T21:33:28.386Z,5.76
2022-12-28T21:36:02.811Z,5.78
2022-12-28T21:38:37.896Z,5.79
2022-12-28T21:41:09.856Z,5.79
2022-12-28T21:43:42.745Z,5.79
2022-12-28T21:46:16.084Z,5.80
2022-12-28T21:48:48.565Z,5.81
2022-12-28T21:51:35.331Z,5.83
2022-12-28T21:54:11.384Z,5.85
2022-12-28T21:56:45.469Z,5.83
2022-12-28T21:59:17.846Z,5.84
2022-12-28T22:02:07.903Z,5.84
2022-12-28T22:05:02.437Z,5.84
2022-12-28T22:07:37.305Z,5.83
2022-12-28T22:10:28.119Z,5.83
2022-12-28T22:13:00.537Z,5.84
2022-12-28T22:15:50.863Z,5.85
2022-12-28T22:18:52.656Z,5.87
2022-12-28T22:21:17.437Z,5.88
2022-12-28T22:23:49.862Z,5.88
2022-12-28T22:26:22.340Z,5.89
2022-12-28T22:28:54.613Z,5.91
2022-12-28T22:31:26.940Z,5.92
2022-12-28T22:34:03.371Z,5.95
2022-12-28T22:36:39.075Z,5.96
2022-12-28T22:39:11.342Z,5.98
2022-12-28T22:41:43.690Z,5.98
2022-12-28T22:44:16.031Z,5.99
2022-12-28T22:46:48.463Z,5.99
2022-12-28T22:49:21.085Z,5.99
2022-12-28T22:51:53.444Z,6.00
2022-12-28T22:54:26.028Z,6.01
2022-12-28T22:56:58.327Z,6.02
2022-12-28T22:59:30.787Z,6.03
2022-12-28T23:02:03.254Z,6.03
2022-12-28T23:04:35.923Z,6.04
2022-12-28T23:07:08.367Z,6.04
2022-12-28T23:09:40.740Z,6.05
2022-12-28T23:12:13.067Z,6.08
2022-12-28T23:15:03.079Z,6.10
2022-12-28T23:17:35.453Z,6.12
2022-12-28T23:20:26.611Z,6.12
2022-12-28T23:23:17.008Z,6.14
2022-12-28T23:26:07.456Z,6.15
2022-12-28T23:28:39.756Z,6.15
2022-12-28T23:31:11.990Z,6.15
2022-12-28T23:33:44.342Z,6.17
2022-12-28T23:36:16.672Z,6.17
2022-12-28T23:38:50.686Z,6.16
2022-12-28T23:41:40.637Z,6.15
2022-12-28T23:44:12.933Z,6.16
2022-12-28T23:46:45.646Z,6.18
2022-12-28T23:49:18.933Z,6.18
2022-12-28T23:51:51.558Z,6.18
2022-12-28T23:54:24.012Z,6.20
2022-12-28T23:56:56.358Z,6.21
2022-12-28T23:59:28.712Z,6.20
